createdAt,value
2022-11-06T00:54:14.201Z,62.50
2022-11-06T01:42:00.595Z,62.50
2022-11-06T02:52:39.544Z,62.40
2022-11-06T04:58:57.841Z,62.10
2022-11-06T10:30:25.047Z,67.40
2022-11-06T10:33:34.964Z,66.90
2022-11-06T13:15:38.846Z,75.00
2022-11-06T14:54:16.560Z,77.90
2022-11-06T15:10:41.609Z,77.00
2022-11-06T15:13:12.969Z,77.10
2022-11-06T15:15:45.139Z,77.20
2022-11-06T15:18:16.937Z,77.90
2022-11-06T15:20:46.997Z,79.00
2022-11-06T15:23:26.955Z,79.50
2022-11-06T15:26:16.978Z,79.70
2022-11-06T15:28:53.156Z,79.50
2022-11-06T15:31:22.117Z,79.70
2022-11-06T15:33:55.735Z,79.80
2022-11-06T15:36:23.799Z,79.90
2022-11-06T15:38:53.213Z,79.90
2022-11-06T15:41:24.316Z,79.90
2022-11-06T15:43:54.895Z,79.90
2022-11-06T15:46:25.147Z,79.90
2022-11-06T15:49:17.905Z,80.10
2022-11-06T15:51:57.770Z,80.10
2022-11-06T15:54:38.757Z,80.10
2022-11-06T15:57:14.655Z,80.10
2022-11-06T15:59:41.650Z,80.30
2022-11-06T16:02:22.860Z,80.30
2022-11-06T16:04:50.844Z,80.30
2022-11-06T16:07:20.980Z,80.20
2022-11-06T16:09:50.669Z,80.20
2022-11-06T16:12:18.717Z,80.30
2022-11-06T16:14:45.882Z,80.20
2022-11-06T16:17:22.727Z,79.80
2022-11-06T16:19:51.435Z,79.80
2022-11-06T16:22:22.411Z,79.30
2022-11-06T16:25:14.183Z,79.30
2022-11-06T16:27:41.990Z,79.10
2022-11-06T16:30:25.104Z,79.00
2022-11-06T16:32:52.835Z,79.10
2022-11-06T16:35:35.331Z,79.10
2022-11-06T16:38:39.888Z,79.20
2022-11-06T16:41:05.229Z,79.30
2022-11-06T16:43:32.381Z,79.30
2022-11-06T16:46:06.966Z,79.30
2022-11-06T16:48:39.328Z,79.40
2022-11-06T16:51:13.525Z,79.70
2022-11-06T16:54:17.941Z,79.90
2022-11-06T16:56:44.858Z,79.80
2022-11-06T16:59:16.449Z,79.70
2022-11-06T17:01:46.792Z,79.80
2022-11-06T17:04:26.225Z,79.90
2022-11-06T17:06:56.033Z,80.40
2022-11-06T17:09:22.832Z,80.70
2022-11-06T17:11:58.147Z,81.60
2022-11-06T17:14:25.645Z,82.60
2022-11-06T17:17:00.432Z,84.30
2022-11-06T17:19:37.915Z,84.10
2022-11-06T17:22:10.600Z,83.50
2022-11-06T17:24:38.034Z,83.40
2022-11-06T17:27:08.073Z,83.30
2022-11-06T17:29:36.518Z,83.00
2022-11-06T17:32:03.769Z,82.80
2022-11-06T17:34:30.598Z,82.90
2022-11-06T17:36:57.436Z,82.80
2022-11-06T17:39:24.434Z,82.90
2022-11-06T17:41:51.265Z,82.70
2022-11-06T17:44:18.381Z,82.90
2022-11-06T17:46:47.006Z,82.80
2022-11-06T17:49:17.921Z,82.70
2022-11-06T17:51:59.947Z,82.90
2022-11-06T17:54:32.110Z,82.70
2022-11-06T17:57:04.382Z,82.70
2022-11-06T17:59:31.899Z,82.50
2022-11-06T18:01:59.401Z,82.40
2022-11-06T18:04:30.534Z,82.10
2022-11-06T18:06:57.537Z,82.40
2022-11-06T18:09:24.451Z,82.40
2022-11-06T18:11:52.722Z,82.20
2022-11-06T18:14:21.493Z,82.20
2022-11-06T18:16:48.927Z,81.90
2022-11-06T18:19:22.603Z,82.00
2022-11-06T18:21:49.570Z,81.90
2022-11-06T18:24:16.394Z,81.90
2022-11-06T18:26:43.194Z,81.70
2022-11-06T18:29:13.407Z,81.60
2022-11-06T18:31:41.001Z,81.80
2022-11-06T18:34:14.070Z,81.70
2022-11-06T18:36:45.371Z,81.80
2022-11-06T18:39:12.182Z,81.70
2022-11-06T18:41:41.639Z,81.70
2022-11-06T18:44:08.586Z,81.70
2022-11-06T18:46:37.365Z,81.50
2022-11-06T18:49:04.142Z,81.30
2022-11-06T18:51:35.754Z,81.50
2022-11-06T18:54:06.261Z,81.40
2022-11-06T18:56:35.823Z,81.30
2022-11-06T18:59:03.550Z,81.40
2022-11-06T19:01:30.513Z,81.20
2022-11-06T19:03:57.450Z,81.20
2022-11-06T19:06:24.430Z,81.20
2022-11-06T19:08:51.322Z,81.10
2022-11-06T19:11:18.582Z,80.80
2022-11-06T19:13:48.328Z,80.70
2022-11-06T19:16:19.377Z,80.90
2022-11-06T19:21:29.864Z,80.80
2022-11-06T19:24:05.235Z,80.90
2022-11-06T19:26:33.050Z,81.00
2022-11-06T19:29:00.797Z,80.80
2022-11-06T19:31:29.576Z,81.10
2022-11-06T19:33:58.037Z,81.00
2022-11-06T19:36:25.413Z,80.90
2022-11-06T19:38:57.280Z,80.90
2022-11-06T19:41:28.507Z,81.00
2022-11-06T19:43:55.380Z,80.80
2022-11-06T19:46:26.094Z,80.60
2022-11-06T19:48:55.280Z,80.80
2022-11-06T19:51:22.255Z,80.70
2022-11-06T19:53:53.005Z,80.40
2022-11-06T19:56:20.598Z,80.10
2022-11-06T19:58:48.562Z,80.10
2022-11-06T20:01:15.569Z,80.20
2022-11-06T20:03:43.094Z,80.40
2022-11-06T20:06:10.335Z,80.40
2022-11-06T20:08:38.769Z,80.30
2022-11-06T20:11:07.584Z,80.10
2022-11-06T20:13:39.040Z,80.10
2022-11-06T20:16:08.479Z,80.00
2022-11-06T20:18:36.029Z,79.90
2022-11-06T20:21:05.192Z,80.00
2022-11-06T20:23:32.694Z,79.90
2022-11-06T20:25:59.895Z,80.00
2022-11-06T20:28:26.986Z,80.10
2022-11-06T20:30:55.405Z,80.30
2022-11-06T20:33:22.438Z,80.60
2022-11-06T20:35:52.074Z,80.70
2022-11-06T20:38:19.714Z,80.20
2022-11-06T20:40:46.633Z,80.00
2022-11-06T20:43:13.744Z,79.60
2022-11-06T20:45:40.876Z,79.80
2022-11-06T20:48:09.380Z,79.90
2022-11-06T20:50:36.364Z,79.80
2022-11-06T20:53:03.249Z,79.70
2022-11-06T20:55:30.188Z,79.50
2022-11-06T20:57:56.960Z,78.20
2022-11-06T21:00:23.775Z,64.20
2022-11-06T21:02:51.807Z,65.40
2022-11-06T21:05:19.968Z,69.60
2022-11-06T21:07:46.885Z,74.00
2022-11-06T21:10:13.687Z,88.90
2022-11-06T21:12:40.510Z,89.80
2022-11-06T21:15:07.870Z,89.50
2022-11-06T21:17:35.423Z,87.90
2022-11-06T21:20:02.235Z,87.00
